sensor_id;sensor_type;location;lat;lon;timestamp;temperature;humidity
21895;DHT22;11112;51.270;7.224;2023-04-03T00:01:08;7.00;94.80
21895;DHT22;11112;51.270;7.224;2023-04-03T00:03:36;7.00;94.80
21895;DHT22;11112;51.270;7.224;2023-04-03T00:06:04;6.90;94.80
21895;DHT22;11112;51.270;7.224;2023-04-03T00:08:35;6.90;94.90
21895;DHT22;11112;51.270;7.224;2023-04-03T00:11:03;6.90;94.70
21895;DHT22;11112;51.270;7.224;2023-04-03T00:13:32;7.00;95.00
21895;DHT22;11112;51.270;7.224;2023-04-03T00:16:00;6.90;94.90
21895;DHT22;11112;51.270;7.224;2023-04-03T00:18:27;7.00;95.00
21895;DHT22;11112;51.270;7.224;2023-04-03T00:20:54;7.00;94.80
21895;DHT22;11112;51.270;7.224;2023-04-03T00:23:21;6.90;94.70
21895;DHT22;11112;51.270;7.224;2023-04-03T00:25:50;6.90;94.80
21895;DHT22;11112;51.270;7.224;2023-04-03T00:28:20;6.90;94.90
21895;DHT22;11112;51.270;7.224;2023-04-03T00:30:49;6.80;95.00
21895;DHT22;11112;51.270;7.224;2023-04-03T00:33:16;6.80;94.90
21895;DHT22;11112;51.270;7.224;2023-04-03T00:35:47;6.80;94.90
21895;DHT22;11112;51.270;7.224;2023-04-03T00:38:15;6.80;94.90
21895;DHT22;11112;51.270;7.224;2023-04-03T00:40:44;6.70;95.00
21895;DHT22;11112;51.270;7.224;2023-04-03T00:43:15;6.70;95.20
21895;DHT22;11112;51.270;7.224;2023-04-03T00:45:45;6.70;95.20
21895;DHT22;11112;51.270;7.224;2023-04-03T00:48:17;6.80;95.30
21895;DHT22;11112;51.270;7.224;2023-04-03T00:50:46;6.80;95.10
21895;DHT22;11112;51.270;7.224;2023-04-03T00:53:19;6.70;95.00
21895;DHT22;11112;51.270;7.224;2023-04-03T00:55:49;6.70;95.20
21895;DHT22;11112;51.270;7.224;2023-04-03T00:58:21;6.80;95.20
21895;DHT22;11112;51.270;7.224;2023-04-03T01:00:55;6.80;95.30
21895;DHT22;11112;51.270;7.224;2023-04-03T01:03:25;6.70;94.90
21895;DHT22;11112;51.270;7.224;2023-04-03T01:05:53;6.60;94.90
21895;DHT22;11112;51.270;7.224;2023-04-03T01:08:23;6.60;95.20
21895;DHT22;11112;51.270;7.224;2023-04-03T01:10:50;6.60;95.40
21895;DHT22;11112;51.270;7.224;2023-04-03T01:13:22;6.60;95.30
21895;DHT22;11112;51.270;7.224;2023-04-03T01:15:51;6.70;95.30
21895;DHT22;11112;51.270;7.224;2023-04-03T01:18:19;6.70;95.20
21895;DHT22;11112;51.270;7.224;2023-04-03T01:24:06;6.70;95.20
21895;DHT22;11112;51.270;7.224;2023-04-03T01:26:39;6.70;95.30
21895;DHT22;11112;51.270;7.224;2023-04-03T01:29:07;6.60;95.10
21895;DHT22;11112;51.270;7.224;2023-04-03T01:31:52;6.60;95.00
21895;DHT22;11112;51.270;7.224;2023-04-03T01:34:21;6.60;95.10
21895;DHT22;11112;51.270;7.224;2023-04-03T01:36:48;6.60;95.10
21895;DHT22;11112;51.270;7.224;2023-04-03T01:39:16;6.60;95.20
21895;DHT22;11112;51.270;7.224;2023-04-03T01:41:43;6.60;95.50
21895;DHT22;11112;51.270;7.224;2023-04-03T01:44:11;6.60;95.10
21895;DHT22;11112;51.270;7.224;2023-04-03T01:46:38;6.50;95.10
21895;DHT22;11112;51.270;7.224;2023-04-03T01:49:09;6.50;95.40
21895;DHT22;11112;51.270;7.224;2023-04-03T01:51:36;6.60;95.60
21895;DHT22;11112;51.270;7.224;2023-04-03T01:54:03;6.50;95.00
21895;DHT22;11112;51.270;7.224;2023-04-03T01:56:30;6.50;95.20
21895;DHT22;11112;51.270;7.224;2023-04-03T01:58:57;6.50;95.20
21895;DHT22;11112;51.270;7.224;2023-04-03T02:01:24;6.50;95.30
21895;DHT22;11112;51.270;7.224;2023-04-03T02:03:52;6.50;95.40
21895;DHT22;11112;51.270;7.224;2023-04-03T02:06:21;6.50;95.30
21895;DHT22;11112;51.270;7.224;2023-04-03T02:08:48;6.40;95.10
21895;DHT22;11112;51.270;7.224;2023-04-03T02:11:15;6.40;95.20
21895;DHT22;11112;51.270;7.224;2023-04-03T02:13:42;6.40;95.40
21895;DHT22;11112;51.270;7.224;2023-04-03T02:16:10;6.40;95.40
21895;DHT22;11112;51.270;7.224;2023-04-03T02:18:38;6.40;95.70
21895;DHT22;11112;51.270;7.224;2023-04-03T02:21:05;6.40;95.60
21895;DHT22;11112;51.270;7.224;2023-04-03T02:23:34;6.50;95.70
21895;DHT22;11112;51.270;7.224;2023-04-03T02:26:04;6.50;95.60
21895;DHT22;11112;51.270;7.224;2023-04-03T02:28:33;6.40;95.50
21895;DHT22;11112;51.270;7.224;2023-04-03T02:31:00;6.40;95.40
21895;DHT22;11112;51.270;7.224;2023-04-03T02:33:31;6.30;95.30
21895;DHT22;11112;51.270;7.224;2023-04-03T02:35:58;6.30;95.50
21895;DHT22;11112;51.270;7.224;2023-04-03T02:38:26;6.30;95.70
21895;DHT22;11112;51.270;7.224;2023-04-03T02:41:02;6.30;95.60
21895;DHT22;11112;51.270;7.224;2023-04-03T02:43:30;6.40;95.40
21895;DHT22;11112;51.270;7.224;2023-04-03T02:45:58;6.40;95.70
21895;DHT22;11112;51.270;7.224;2023-04-03T02:48:25;6.40;95.60
21895;DHT22;11112;51.270;7.224;2023-04-03T02:50:52;6.40;95.50
21895;DHT22;11112;51.270;7.224;2023-04-03T02:53:20;6.40;95.20
21895;DHT22;11112;51.270;7.224;2023-04-03T02:55:47;6.30;95.30
21895;DHT22;11112;51.270;7.224;2023-04-03T02:58:15;6.30;95.50
21895;DHT22;11112;51.270;7.224;2023-04-03T03:00:44;6.30;95.30
21895;DHT22;11112;51.270;7.224;2023-04-03T03:03:11;6.20;95.60
21895;DHT22;11112;51.270;7.224;2023-04-03T03:05:39;6.30;95.50
21895;DHT22;11112;51.270;7.224;2023-04-03T03:08:07;6.30;95.50
21895;DHT22;11112;51.270;7.224;2023-04-03T03:10:34;6.30;95.40
21895;DHT22;11112;51.270;7.224;2023-04-03T03:13:01;6.30;95.50
21895;DHT22;11112;51.270;7.224;2023-04-03T03:15:30;6.40;95.30
21895;DHT22;11112;51.270;7.224;2023-04-03T03:17:57;6.40;95.40
21895;DHT22;11112;51.270;7.224;2023-04-03T03:20:26;6.40;95.40
21895;DHT22;11112;51.270;7.224;2023-04-03T03:22:53;6.40;95.30
21895;DHT22;11112;51.270;7.224;2023-04-03T03:25:20;6.40;95.30
21895;DHT22;11112;51.270;7.224;2023-04-03T03:27:48;6.40;95.20
21895;DHT22;11112;51.270;7.224;2023-04-03T03:30:16;6.40;95.30
21895;DHT22;11112;51.270;7.224;2023-04-03T03:32:45;6.40;95.20
21895;DHT22;11112;51.270;7.224;2023-04-03T03:35:12;6.40;95.30
21895;DHT22;11112;51.270;7.224;2023-04-03T03:37:39;6.40;95.30
21895;DHT22;11112;51.270;7.224;2023-04-03T03:40:07;6.40;95.30
21895;DHT22;11112;51.270;7.224;2023-04-03T03:42:36;6.40;95.30
21895;DHT22;11112;51.270;7.224;2023-04-03T03:45:04;6.40;95.30
21895;DHT22;11112;51.270;7.224;2023-04-03T03:47:32;6.40;95.40
21895;DHT22;11112;51.270;7.224;2023-04-03T03:50:04;6.40;95.20
21895;DHT22;11112;51.270;7.224;2023-04-03T03:52:33;6.40;95.30
21895;DHT22;11112;51.270;7.224;2023-04-03T03:55:00;6.40;95.20
21895;DHT22;11112;51.270;7.224;2023-04-03T03:57:27;6.40;95.20
21895;DHT22;11112;51.270;7.224;2023-04-03T03:59:55;6.40;95.50
21895;DHT22;11112;51.270;7.224;2023-04-03T04:02:22;6.40;95.20
21895;DHT22;11112;51.270;7.224;2023-04-03T04:04:50;6.40;95.20
21895;DHT22;11112;51.270;7.224;2023-04-03T04:07:18;6.40;95.50
21895;DHT22;11112;51.270;7.224;2023-04-03T04:09:45;6.40;95.40
21895;DHT22;11112;51.270;7.224;2023-04-03T04:12:12;6.40;95.10
21895;DHT22;11112;51.270;7.224;2023-04-03T04:14:39;6.40;95.30
21895;DHT22;11112;51.270;7.224;2023-04-03T04:17:06;6.30;95.30
21895;DHT22;11112;51.270;7.224;2023-04-03T04:19:33;6.40;95.30
21895;DHT22;11112;51.270;7.224;2023-04-03T04:22:01;6.30;95.30
21895;DHT22;11112;51.270;7.224;2023-04-03T04:24:33;6.30;95.30
21895;DHT22;11112;51.270;7.224;2023-04-03T04:27:03;6.30;95.10
21895;DHT22;11112;51.270;7.224;2023-04-03T04:29:30;6.30;95.20
21895;DHT22;11112;51.270;7.224;2023-04-03T04:32:01;6.30;95.00
21895;DHT22;11112;51.270;7.224;2023-04-03T04:34:29;6.30;95.10
21895;DHT22;11112;51.270;7.224;2023-04-03T04:36:57;6.30;95.10
21895;DHT22;11112;51.270;7.224;2023-04-03T04:39:25;6.30;95.10
21895;DHT22;11112;51.270;7.224;2023-04-03T04:41:54;6.40;95.10
21895;DHT22;11112;51.270;7.224;2023-04-03T04:44:21;6.30;95.00
21895;DHT22;11112;51.270;7.224;2023-04-03T04:46:48;6.30;95.00
21895;DHT22;11112;51.270;7.224;2023-04-03T04:49:15;6.30;95.10
21895;DHT22;11112;51.270;7.224;2023-04-03T04:51:42;6.30;95.00
21895;DHT22;11112;51.270;7.224;2023-04-03T04:54:10;6.40;95.40
21895;DHT22;11112;51.270;7.224;2023-04-03T04:56:37;6.40;95.10
21895;DHT22;11112;51.270;7.224;2023-04-03T04:59:06;6.40;95.00
21895;DHT22;11112;51.270;7.224;2023-04-03T05:01:33;6.40;95.00
21895;DHT22;11112;51.270;7.224;2023-04-03T05:04:01;6.30;95.00
21895;DHT22;11112;51.270;7.224;2023-04-03T05:06:29;6.30;94.90
21895;DHT22;11112;51.270;7.224;2023-04-03T05:08:57;6.30;95.00
21895;DHT22;11112;51.270;7.224;2023-04-03T05:11:27;6.30;95.10
21895;DHT22;11112;51.270;7.224;2023-04-03T05:13:54;6.30;95.10
21895;DHT22;11112;51.270;7.224;2023-04-03T05:16:23;6.30;95.10
21895;DHT22;11112;51.270;7.224;2023-04-03T05:18:50;6.30;95.10
21895;DHT22;11112;51.270;7.224;2023-04-03T05:21:17;6.30;95.20
21895;DHT22;11112;51.270;7.224;2023-04-03T05:23:47;6.30;95.00
21895;DHT22;11112;51.270;7.224;2023-04-03T05:26:14;6.30;95.10
21895;DHT22;11112;51.270;7.224;2023-04-03T05:28:41;6.30;95.00
21895;DHT22;11112;51.270;7.224;2023-04-03T05:31:08;6.30;95.00
21895;DHT22;11112;51.270;7.224;2023-04-03T05:33:36;6.20;95.10
21895;DHT22;11112;51.270;7.224;2023-04-03T05:36:04;6.20;95.10
21895;DHT22;11112;51.270;7.224;2023-04-03T05:38:32;6.20;95.00
21895;DHT22;11112;51.270;7.224;2023-04-03T05:41:00;6.20;95.10
21895;DHT22;11112;51.270;7.224;2023-04-03T05:43:27;6.20;95.60
21895;DHT22;11112;51.270;7.224;2023-04-03T05:45:54;6.20;95.00
21895;DHT22;11112;51.270;7.224;2023-04-03T05:48:21;6.20;95.10
21895;DHT22;11112;51.270;7.224;2023-04-03T05:50:50;6.10;94.90
21895;DHT22;11112;51.270;7.224;2023-04-03T05:53:21;6.10;95.30
21895;DHT22;11112;51.270;7.224;2023-04-03T05:55:50;6.10;95.10
21895;DHT22;11112;51.270;7.224;2023-04-03T05:58:17;6.10;95.30
21895;DHT22;11112;51.270;7.224;2023-04-03T06:00:44;6.00;95.10
21895;DHT22;11112;51.270;7.224;2023-04-03T06:03:17;6.00;95.10
21895;DHT22;11112;51.270;7.224;2023-04-03T06:05:44;5.90;95.20
21895;DHT22;11112;51.270;7.224;2023-04-03T06:08:15;5.90;95.10
21895;DHT22;11112;51.270;7.224;2023-04-03T06:10:42;5.90;95.10
21895;DHT22;11112;51.270;7.224;2023-04-03T06:13:09;5.80;95.40
21895;DHT22;11112;51.270;7.224;2023-04-03T06:15:37;5.80;95.80
21895;DHT22;11112;51.270;7.224;2023-04-03T06:18:05;5.90;95.90
21895;DHT22;11112;51.270;7.224;2023-04-03T06:20:32;6.00;95.70
21895;DHT22;11112;51.270;7.224;2023-04-03T06:22:59;6.00;95.30
21895;DHT22;11112;51.270;7.224;2023-04-03T06:25:28;5.90;95.30
21895;DHT22;11112;51.270;7.224;2023-04-03T06:27:55;5.90;95.60
21895;DHT22;11112;51.270;7.224;2023-04-03T06:30:22;5.90;95.70
21895;DHT22;11112;51.270;7.224;2023-04-03T06:32:49;5.90;95.40
21895;DHT22;11112;51.270;7.224;2023-04-03T06:35:16;5.90;95.60
21895;DHT22;11112;51.270;7.224;2023-04-03T06:37:43;5.80;95.50
21895;DHT22;11112;51.270;7.224;2023-04-03T06:40:17;5.80;95.60
21895;DHT22;11112;51.270;7.224;2023-04-03T06:42:50;5.80;95.70
21895;DHT22;11112;51.270;7.224;2023-04-03T06:45:17;5.70;95.60
21895;DHT22;11112;51.270;7.224;2023-04-03T06:47:45;5.60;95.80
21895;DHT22;11112;51.270;7.224;2023-04-03T06:50:12;5.60;95.90
21895;DHT22;11112;51.270;7.224;2023-04-03T06:52:40;5.60;95.90
21895;DHT22;11112;51.270;7.224;2023-04-03T06:55:08;5.60;96.00
21895;DHT22;11112;51.270;7.224;2023-04-03T06:57:35;5.50;96.00
21895;DHT22;11112;51.270;7.224;2023-04-03T07:00:06;5.50;96.20
21895;DHT22;11112;51.270;7.224;2023-04-03T07:02:34;5.50;96.10
21895;DHT22;11112;51.270;7.224;2023-04-03T07:05:02;5.60;96.00
21895;DHT22;11112;51.270;7.224;2023-04-03T07:07:29;5.60;96.00
21895;DHT22;11112;51.270;7.224;2023-04-03T07:12:24;5.70;96.00
21895;DHT22;11112;51.270;7.224;2023-04-03T07:14:51;5.60;95.90
21895;DHT22;11112;51.270;7.224;2023-04-03T07:17:20;5.60;95.90
21895;DHT22;11112;51.270;7.224;2023-04-03T07:19:47;5.70;96.00
21895;DHT22;11112;51.270;7.224;2023-04-03T07:22:14;5.70;95.70
21895;DHT22;11112;51.270;7.224;2023-04-03T07:24:43;5.70;95.60
21895;DHT22;11112;51.270;7.224;2023-04-03T07:27:10;5.70;95.60
21895;DHT22;11112;51.270;7.224;2023-04-03T07:29:38;5.80;95.60
21895;DHT22;11112;51.270;7.224;2023-04-03T07:32:06;5.80;95.30
21895;DHT22;11112;51.270;7.224;2023-04-03T07:34:34;5.80;95.30
21895;DHT22;11112;51.270;7.224;2023-04-03T07:37:02;5.90;95.20
21895;DHT22;11112;51.270;7.224;2023-04-03T07:39:30;5.90;95.10
21895;DHT22;11112;51.270;7.224;2023-04-03T07:41:58;6.00;95.40
21895;DHT22;11112;51.270;7.224;2023-04-03T07:44:25;6.00;95.20
21895;DHT22;11112;51.270;7.224;2023-04-03T07:46:53;6.10;95.20
21895;DHT22;11112;51.270;7.224;2023-04-03T07:49:20;6.10;95.40
21895;DHT22;11112;51.270;7.224;2023-04-03T07:51:50;6.10;95.20
21895;DHT22;11112;51.270;7.224;2023-04-03T07:54:17;6.20;95.20
21895;DHT22;11112;51.270;7.224;2023-04-03T07:56:44;6.30;94.90
21895;DHT22;11112;51.270;7.224;2023-04-03T07:59:14;6.40;95.00
21895;DHT22;11112;51.270;7.224;2023-04-03T08:01:41;6.40;94.30
21895;DHT22;11112;51.270;7.224;2023-04-03T08:04:09;6.40;94.00
21895;DHT22;11112;51.270;7.224;2023-04-03T08:06:36;6.50;94.50
21895;DHT22;11112;51.270;7.224;2023-04-03T08:09:05;6.50;94.00
21895;DHT22;11112;51.270;7.224;2023-04-03T08:11:32;6.50;94.00
21895;DHT22;11112;51.270;7.224;2023-04-03T08:13:59;6.50;93.90
21895;DHT22;11112;51.270;7.224;2023-04-03T08:16:27;6.60;93.30
21895;DHT22;11112;51.270;7.224;2023-04-03T08:18:54;6.60;93.00
21895;DHT22;11112;51.270;7.224;2023-04-03T08:21:22;6.60;92.40
21895;DHT22;11112;51.270;7.224;2023-04-03T08:23:49;6.60;92.10
21895;DHT22;11112;51.270;7.224;2023-04-03T08:26:20;6.60;91.60
21895;DHT22;11112;51.270;7.224;2023-04-03T08:28:48;6.60;91.80
21895;DHT22;11112;51.270;7.224;2023-04-03T08:31:20;6.70;91.10
21895;DHT22;11112;51.270;7.224;2023-04-03T08:33:47;6.70;90.90
21895;DHT22;11112;51.270;7.224;2023-04-03T08:36:17;6.80;90.80
21895;DHT22;11112;51.270;7.224;2023-04-03T08:38:46;6.90;91.10
21895;DHT22;11112;51.270;7.224;2023-04-03T08:41:16;7.00;90.20
21895;DHT22;11112;51.270;7.224;2023-04-03T08:44:04;7.00;89.90
21895;DHT22;11112;51.270;7.224;2023-04-03T08:46:45;7.10;89.80
21895;DHT22;11112;51.270;7.224;2023-04-03T08:49:24;7.10;89.60
21895;DHT22;11112;51.270;7.224;2023-04-03T08:51:54;7.20;90.10
21895;DHT22;11112;51.270;7.224;2023-04-03T08:54:30;7.20;88.90
21895;DHT22;11112;51.270;7.224;2023-04-03T08:57:02;7.20;87.30
21895;DHT22;11112;51.270;7.224;2023-04-03T08:59:34;7.30;88.40
21895;DHT22;11112;51.270;7.224;2023-04-03T09:02:12;7.40;88.60
21895;DHT22;11112;51.270;7.224;2023-04-03T09:04:48;7.50;88.30
21895;DHT22;11112;51.270;7.224;2023-04-03T09:07:22;7.60;86.30
21895;DHT22;11112;51.270;7.224;2023-04-03T09:09:55;7.50;85.50
21895;DHT22;11112;51.270;7.224;2023-04-03T09:12:31;7.50;86.00
21895;DHT22;11112;51.270;7.224;2023-04-03T09:15:06;7.40;86.80
21895;DHT22;11112;51.270;7.224;2023-04-03T09:17:44;7.50;86.60
21895;DHT22;11112;51.270;7.224;2023-04-03T09:20:23;7.60;86.40
21895;DHT22;11112;51.270;7.224;2023-04-03T09:22:52;7.60;86.30
21895;DHT22;11112;51.270;7.224;2023-04-03T09:25:22;7.50;86.60
21895;DHT22;11112;51.270;7.224;2023-04-03T09:27:52;7.60;87.50
21895;DHT22;11112;51.270;7.224;2023-04-03T09:30:21;7.80;86.90
21895;DHT22;11112;51.270;7.224;2023-04-03T09:32:50;7.90;87.10
21895;DHT22;11112;51.270;7.224;2023-04-03T09:35:24;7.90;86.70
21895;DHT22;11112;51.270;7.224;2023-04-03T09:37:55;7.90;86.50
21895;DHT22;11112;51.270;7.224;2023-04-03T09:40:34;7.90;85.40
21895;DHT22;11112;51.270;7.224;2023-04-03T09:43:21;7.90;82.70
21895;DHT22;11112;51.270;7.224;2023-04-03T09:45:51;7.80;83.20
21895;DHT22;11112;51.270;7.224;2023-04-03T09:48:20;7.90;84.10
21895;DHT22;11112;51.270;7.224;2023-04-03T09:51:00;8.00;83.20
21895;DHT22;11112;51.270;7.224;2023-04-03T09:53:34;8.00;83.00
21895;DHT22;11112;51.270;7.224;2023-04-03T09:56:05;8.10;82.90
21895;DHT22;11112;51.270;7.224;2023-04-03T09:58:50;8.10;77.90
21895;DHT22;11112;51.270;7.224;2023-04-03T10:01:25;8.00;74.10
21895;DHT22;11112;51.270;7.224;2023-04-03T10:04:09;8.00;75.00
21895;DHT22;11112;51.270;7.224;2023-04-03T10:06:39;8.10;70.70
21895;DHT22;11112;51.270;7.224;2023-04-03T10:09:19;8.00;64.20
21895;DHT22;11112;51.270;7.224;2023-04-03T10:12:06;8.00;65.40
21895;DHT22;11112;51.270;7.224;2023-04-03T10:14:38;8.00;66.30
21895;DHT22;11112;51.270;7.224;2023-04-03T10:17:16;8.00;59.90
21895;DHT22;11112;51.270;7.224;2023-04-03T10:19:48;8.10;63.00
21895;DHT22;11112;51.270;7.224;2023-04-03T10:22:21;8.10;58.30
21895;DHT22;11112;51.270;7.224;2023-04-03T10:25:01;8.10;56.40
21895;DHT22;11112;51.270;7.224;2023-04-03T10:27:48;8.10;57.00
21895;DHT22;11112;51.270;7.224;2023-04-03T10:30:29;8.10;56.30
21895;DHT22;11112;51.270;7.224;2023-04-03T10:36:12;8.20;56.80
21895;DHT22;11112;51.270;7.224;2023-04-03T10:38:54;8.10;55.40
21895;DHT22;11112;51.270;7.224;2023-04-03T10:41:33;8.20;57.00
21895;DHT22;11112;51.270;7.224;2023-04-03T10:44:12;8.40;56.90
21895;DHT22;11112;51.270;7.224;2023-04-03T10:46:48;8.40;57.10
21895;DHT22;11112;51.270;7.224;2023-04-03T10:49:27;8.40;55.30
21895;DHT22;11112;51.270;7.224;2023-04-03T10:52:07;8.40;55.10
21895;DHT22;11112;51.270;7.224;2023-04-03T10:54:40;8.40;55.60
21895;DHT22;11112;51.270;7.224;2023-04-03T10:57:11;8.40;53.40
21895;DHT22;11112;51.270;7.224;2023-04-03T10:59:41;8.40;54.30
21895;DHT22;11112;51.270;7.224;2023-04-03T11:02:17;8.40;54.00
21895;DHT22;11112;51.270;7.224;2023-04-03T11:04:51;8.40;54.10
21895;DHT22;11112;51.270;7.224;2023-04-03T11:07:21;8.40;53.60
21895;DHT22;11112;51.270;7.224;2023-04-03T11:09:55;8.40;53.40
21895;DHT22;11112;51.270;7.224;2023-04-03T11:12:27;8.40;53.90
21895;DHT22;11112;51.270;7.224;2023-04-03T11:15:01;8.40;54.20
21895;DHT22;11112;51.270;7.224;2023-04-03T11:17:37;8.40;52.40
21895;DHT22;11112;51.270;7.224;2023-04-03T11:20:14;8.40;53.50
21895;DHT22;11112;51.270;7.224;2023-04-03T11:22:48;8.40;54.20
21895;DHT22;11112;51.270;7.224;2023-04-03T11:25:25;8.30;53.30
21895;DHT22;11112;51.270;7.224;2023-04-03T11:27:56;8.40;54.70
21895;DHT22;11112;51.270;7.224;2023-04-03T11:30:28;8.40;54.40
21895;DHT22;11112;51.270;7.224;2023-04-03T11:35:54;8.50;56.10
21895;DHT22;11112;51.270;7.224;2023-04-03T11:38:25;8.50;56.20
21895;DHT22;11112;51.270;7.224;2023-04-03T11:40:55;8.60;55.70
21895;DHT22;11112;51.270;7.224;2023-04-03T11:43:25;8.70;55.50
21895;DHT22;11112;51.270;7.224;2023-04-03T11:45:56;8.70;56.80
21895;DHT22;11112;51.270;7.224;2023-04-03T11:48:49;8.70;56.70
21895;DHT22;11112;51.270;7.224;2023-04-03T11:51:45;8.60;56.30
21895;DHT22;11112;51.270;7.224;2023-04-03T11:54:35;8.60;57.50
21895;DHT22;11112;51.270;7.224;2023-04-03T11:57:46;8.70;56.80
21895;DHT22;11112;51.270;7.224;2023-04-03T12:00:54;8.70;56.30
21895;DHT22;11112;51.270;7.224;2023-04-03T12:07:00;8.60;56.00
21895;DHT22;11112;51.270;7.224;2023-04-03T12:09:34;8.50;56.40
21895;DHT22;11112;51.270;7.224;2023-04-03T12:12:33;8.60;57.90
21895;DHT22;11112;51.270;7.224;2023-04-03T12:21:12;8.80;57.20
21895;DHT22;11112;51.270;7.224;2023-04-03T12:24:03;8.70;56.40
21895;DHT22;11112;51.270;7.224;2023-04-03T12:26:40;8.70;56.40
21895;DHT22;11112;51.270;7.224;2023-04-03T12:29:15;8.70;56.90
21895;DHT22;11112;51.270;7.224;2023-04-03T12:31:52;8.70;57.20
21895;DHT22;11112;51.270;7.224;2023-04-03T12:37:43;8.80;57.70
21895;DHT22;11112;51.270;7.224;2023-04-03T12:40:26;8.80;57.50
21895;DHT22;11112;51.270;7.224;2023-04-03T12:43:13;8.80;57.00
21895;DHT22;11112;51.270;7.224;2023-04-03T12:46:03;8.70;56.50
21895;DHT22;11112;51.270;7.224;2023-04-03T12:48:39;8.70;56.70
21895;DHT22;11112;51.270;7.224;2023-04-03T12:51:14;8.70;56.70
21895;DHT22;11112;51.270;7.224;2023-04-03T12:53:45;8.70;57.20
21895;DHT22;11112;51.270;7.224;2023-04-03T12:56:22;8.70;56.50
21895;DHT22;11112;51.270;7.224;2023-04-03T12:58:51;8.70;56.90
21895;DHT22;11112;51.270;7.224;2023-04-03T13:01:21;8.70;57.10
21895;DHT22;11112;51.270;7.224;2023-04-03T13:03:52;8.70;57.60
21895;DHT22;11112;51.270;7.224;2023-04-03T13:06:23;8.70;57.10
21895;DHT22;11112;51.270;7.224;2023-04-03T13:08:54;8.70;57.20
21895;DHT22;11112;51.270;7.224;2023-04-03T13:11:26;8.80;58.00
21895;DHT22;11112;51.270;7.224;2023-04-03T13:13:59;8.90;57.70
21895;DHT22;11112;51.270;7.224;2023-04-03T13:16:27;8.90;58.00
21895;DHT22;11112;51.270;7.224;2023-04-03T13:18:55;8.90;57.80
21895;DHT22;11112;51.270;7.224;2023-04-03T13:21:25;8.80;58.30
21895;DHT22;11112;51.270;7.224;2023-04-03T13:23:58;8.80;58.60
21895;DHT22;11112;51.270;7.224;2023-04-03T13:26:29;8.80;59.40
21895;DHT22;11112;51.270;7.224;2023-04-03T13:29:02;8.80;60.20
21895;DHT22;11112;51.270;7.224;2023-04-03T13:31:33;8.80;58.90
21895;DHT22;11112;51.270;7.224;2023-04-03T13:34:05;8.80;58.80
21895;DHT22;11112;51.270;7.224;2023-04-03T13:36:38;8.80;59.10
21895;DHT22;11112;51.270;7.224;2023-04-03T13:39:22;8.70;59.40
21895;DHT22;11112;51.270;7.224;2023-04-03T13:41:53;8.80;59.00
21895;DHT22;11112;51.270;7.224;2023-04-03T13:44:29;8.80;59.40
21895;DHT22;11112;51.270;7.224;2023-04-03T13:47:00;8.80;59.70
21895;DHT22;11112;51.270;7.224;2023-04-03T13:49:42;8.90;59.60
21895;DHT22;11112;51.270;7.224;2023-04-03T13:52:23;8.90;59.50
21895;DHT22;11112;51.270;7.224;2023-04-03T13:54:55;8.90;59.10
21895;DHT22;11112;51.270;7.224;2023-04-03T13:57:25;8.80;59.80
21895;DHT22;11112;51.270;7.224;2023-04-03T13:59:53;8.80;59.80
21895;DHT22;11112;51.270;7.224;2023-04-03T14:02:23;8.80;60.50
21895;DHT22;11112;51.270;7.224;2023-04-03T14:04:58;8.90;60.30
21895;DHT22;11112;51.270;7.224;2023-04-03T14:07:28;8.80;60.00
21895;DHT22;11112;51.270;7.224;2023-04-03T14:09:56;8.90;60.00
21895;DHT22;11112;51.270;7.224;2023-04-03T14:12:27;8.90;63.10
21895;DHT22;11112;51.270;7.224;2023-04-03T14:14:56;8.90;61.70
21895;DHT22;11112;51.270;7.224;2023-04-03T14:17:25;8.90;61.20
21895;DHT22;11112;51.270;7.224;2023-04-03T14:19:54;8.80;61.70
21895;DHT22;11112;51.270;7.224;2023-04-03T14:22:24;8.90;60.80
21895;DHT22;11112;51.270;7.224;2023-04-03T14:24:53;8.90;61.90
21895;DHT22;11112;51.270;7.224;2023-04-03T14:27:23;9.00;62.10
21895;DHT22;11112;51.270;7.224;2023-04-03T14:29:56;9.00;62.40
21895;DHT22;11112;51.270;7.224;2023-04-03T14:32:28;8.90;63.10
21895;DHT22;11112;51.270;7.224;2023-04-03T14:34:56;8.90;62.90
21895;DHT22;11112;51.270;7.224;2023-04-03T14:37:27;8.90;64.40
21895;DHT22;11112;51.270;7.224;2023-04-03T14:39:57;8.90;63.30
21895;DHT22;11112;51.270;7.224;2023-04-03T14:42:28;8.90;63.30
21895;DHT22;11112;51.270;7.224;2023-04-03T14:44:59;8.90;62.80
21895;DHT22;11112;51.270;7.224;2023-04-03T14:47:29;8.80;63.00
21895;DHT22;11112;51.270;7.224;2023-04-03T14:49:56;8.80;62.80
21895;DHT22;11112;51.270;7.224;2023-04-03T14:52:26;8.90;64.00
21895;DHT22;11112;51.270;7.224;2023-04-03T14:54:55;8.90;63.30
21895;DHT22;11112;51.270;7.224;2023-04-03T14:57:25;8.90;62.70
21895;DHT22;11112;51.270;7.224;2023-04-03T14:59:52;9.00;63.40
21895;DHT22;11112;51.270;7.224;2023-04-03T15:02:28;9.00;62.90
21895;DHT22;11112;51.270;7.224;2023-04-03T15:04:57;8.90;62.40
21895;DHT22;11112;51.270;7.224;2023-04-03T15:07:27;8.90;62.70
21895;DHT22;11112;51.270;7.224;2023-04-03T15:09:56;8.90;62.50
21895;DHT22;11112;51.270;7.224;2023-04-03T15:12:24;8.90;62.00
21895;DHT22;11112;51.270;7.224;2023-04-03T15:14:51;8.80;61.90
21895;DHT22;11112;51.270;7.224;2023-04-03T15:17:21;8.80;63.10
21895;DHT22;11112;51.270;7.224;2023-04-03T15:19:53;8.90;62.10
21895;DHT22;11112;51.270;7.224;2023-04-03T15:22:21;8.80;62.50
21895;DHT22;11112;51.270;7.224;2023-04-03T15:24:48;8.80;63.00
21895;DHT22;11112;51.270;7.224;2023-04-03T15:27:15;8.80;62.70
21895;DHT22;11112;51.270;7.224;2023-04-03T15:29:44;8.70;62.90
21895;DHT22;11112;51.270;7.224;2023-04-03T15:32:12;8.70;63.10
21895;DHT22;11112;51.270;7.224;2023-04-03T15:34:40;8.80;62.90
21895;DHT22;11112;51.270;7.224;2023-04-03T15:37:09;8.80;63.10
21895;DHT22;11112;51.270;7.224;2023-04-03T15:39:36;8.70;62.30
21895;DHT22;11112;51.270;7.224;2023-04-03T15:42:04;8.70;63.40
21895;DHT22;11112;51.270;7.224;2023-04-03T15:44:35;8.80;63.20
21895;DHT22;11112;51.270;7.224;2023-04-03T15:47:03;8.80;63.60
21895;DHT22;11112;51.270;7.224;2023-04-03T15:49:31;8.80;63.00
21895;DHT22;11112;51.270;7.224;2023-04-03T15:51:59;8.80;63.20
21895;DHT22;11112;51.270;7.224;2023-04-03T15:54:28;8.80;63.60
21895;DHT22;11112;51.270;7.224;2023-04-03T15:56:56;8.70;63.40
21895;DHT22;11112;51.270;7.224;2023-04-03T15:59:24;8.70;64.20
21895;DHT22;11112;51.270;7.224;2023-04-03T16:01:51;8.60;63.90
21895;DHT22;11112;51.270;7.224;2023-04-03T16:04:19;8.70;64.40
21895;DHT22;11112;51.270;7.224;2023-04-03T16:06:47;8.60;64.50
21895;DHT22;11112;51.270;7.224;2023-04-03T16:09:15;8.60;65.00
21895;DHT22;11112;51.270;7.224;2023-04-03T16:11:43;8.70;64.40
21895;DHT22;11112;51.270;7.224;2023-04-03T16:14:11;8.60;64.10
21895;DHT22;11112;51.270;7.224;2023-04-03T16:16:38;8.70;64.80
21895;DHT22;11112;51.270;7.224;2023-04-03T16:19:06;8.60;64.20
21895;DHT22;11112;51.270;7.224;2023-04-03T16:21:34;8.60;64.10
21895;DHT22;11112;51.270;7.224;2023-04-03T16:24:02;8.60;63.70
21895;DHT22;11112;51.270;7.224;2023-04-03T16:26:30;8.60;64.80
21895;DHT22;11112;51.270;7.224;2023-04-03T16:28:59;8.60;64.40
21895;DHT22;11112;51.270;7.224;2023-04-03T16:31:27;8.60;64.70